Time;durP1;ratioP1;P1;durP2;ratioP2;P2;SDS_P1;SDS_P2;PMS_P1;PMS_P2;Temp;Humidity;BMP_temperature;BMP_pressure;BME280_temperature;BME280_humidity;BME280_pressure;Samples;Min_cycle;Max_cycle;Signal;HPM_P1;HPM_P2
2022/01/23 00:00:18;;;;;;;10.83;9.20;;;;;;;4.36;94.40;100386.13;4995372;28;104326;-65
2022/01/23 00:02:48;;;;;;;11.53;9.70;;;;;;;4.30;94.93;100388.88;4985953;28;103192;-64
2022/01/23 00:05:20;;;;;;;9.03;7.70;;;;;;;4.26;95.99;100382.84;4991936;28;103225;-65
2022/01/23 00:07:51;;;;;;;11.20;8.73;;;;;;;4.25;94.57;100373.28;5010581;28;103606;-68
2022/01/23 00:10:20;;;;;;;11.13;8.77;;;;;;;4.34;94.71;100373.09;5004351;28;103726;-69
2022/01/23 00:12:52;;;;;;;8.90;7.43;;;;;;;4.37;94.81;100374.78;5007768;28;103179;-69
2022/01/23 00:18:08;;;;;;;7.37;6.60;;;;;;;4.34;94.34;100369.59;5005181;28;102613;-65
2022/01/23 00:20:36;;;;;;;9.13;7.37;;;;;;;4.42;94.45;100372.91;5004419;28;103291;-65
2022/01/23 00:23:13;;;;;;;8.37;7.13;;;;;;;4.39;94.69;100365.13;5004923;28;103192;-65
2022/01/23 00:31:18;;;;;;;11.50;8.40;;;;;;;4.12;96.24;100378.78;5004846;28;103681;-65
2022/01/23 00:33:47;;;;;;;12.00;9.83;;;;;;;4.17;95.98;100376.94;5002191;28;103236;-65
2022/01/23 00:36:15;;;;;;;15.93;13.47;;;;;;;3.84;95.99;100387.16;5006228;28;102687;-65
2022/01/23 00:38:44;;;;;;;12.73;10.57;;;;;;;3.96;95.93;100378.22;5014574;28;103002;-68
2022/01/23 00:41:13;;;;;;;9.47;8.03;;;;;;;4.18;95.60;100376.91;5007748;28;103381;-64
2022/01/23 00:43:45;;;;;;;10.00;7.97;;;;;;;4.32;95.19;100381.88;4986654;28;105467;-65
2022/01/23 00:46:24;;;;;;;11.10;7.93;;;;;;;4.35;94.52;100377.41;5013403;28;102841;-64
2022/01/23 00:49:24;;;;;;;8.60;7.50;;;;;;;4.35;94.50;100377.41;5009849;28;103580;-68
2022/01/23 00:51:52;;;;;;;8.20;6.70;;;;;;;4.40;94.25;100372.09;4992069;28;103484;-68
2022/01/23 00:54:22;;;;;;;7.43;6.20;;;;;;;4.45;94.07;100370.25;4987487;28;104173;-65
2022/01/23 00:56:50;;;;;;;9.13;7.37;;;;;;;4.44;93.65;100364.13;5009357;28;102606;-65
2022/01/23 00:59:20;;;;;;;9.63;8.00;;;;;;;4.43;93.08;100369.41;5014912;28;102746;-65
2022/01/23 01:01:49;;;;;;;7.73;6.73;;;;;;;4.48;93.58;100372.78;5005299;28;103702;-64
2022/01/23 01:04:17;;;;;;;9.30;7.37;;;;;;;4.44;93.59;100374.59;5003749;28;103248;-68
2022/01/23 01:06:45;;;;;;;7.33;6.40;;;;;;;4.42;94.03;100384.25;5011237;28;102634;-64
2022/01/23 01:09:14;;;;;;;9.50;6.77;;;;;;;4.47;93.72;100376.28;4985056;28;103544;-64
2022/01/23 01:11:57;;;;;;;10.77;9.33;;;;;;;4.41;93.71;100371.19;5020338;28;104173;-65
2022/01/23 01:15:11;;;;;;;10.67;8.77;;;;;;;4.42;93.74;100381.63;4988604;28;103271;-65
2022/01/23 01:30:12;;;;;;;8.00;6.20;;;;;;;4.45;93.86;100378.97;4987156;28;103049;-68
2022/01/23 01:31:47;;;;;;;9.23;8.23;;;;;;;4.27;95.40;100361.00;4985975;28;103127;-68
2022/01/23 01:34:20;;;;;;;10.10;6.97;;;;;;;4.30;95.47;100374.03;4988016;28;104200;-64
2022/01/23 01:36:50;;;;;;;9.23;8.13;;;;;;;4.29;95.74;100374.94;5021935;27;103226;-64
2022/01/23 01:39:21;;;;;;;10.87;8.47;;;;;;;4.32;95.02;100371.41;4996850;28;103403;-65
2022/01/23 01:41:49;;;;;;;12.60;10.03;;;;;;;4.32;94.93;100381.88;4982690;28;103629;-65
2022/01/23 01:44:19;;;;;;;12.13;10.20;;;;;;;4.19;94.93;100375.13;4995404;28;103729;-65
2022/01/23 01:47:01;;;;;;;10.87;9.20;;;;;;;4.20;95.57;100376.88;4997212;28;105121;-66
2022/01/23 01:49:36;;;;;;;12.17;10.30;;;;;;;4.10;95.33;100394.50;4990301;28;102750;-65
2022/01/23 01:52:08;;;;;;;11.43;9.67;;;;;;;4.12;95.38;100373.56;4997185;28;103874;-68
2022/01/23 01:54:37;;;;;;;11.80;9.93;;;;;;;4.18;95.75;100389.13;4990508;28;105396;-64
2022/01/23 01:57:14;;;;;;;12.23;10.37;;;;;;;4.25;95.19;100380.25;5003128;28;103269;-65
2022/01/23 02:00:14;;;;;;;10.93;9.07;;;;;;;4.32;95.14;100379.25;4985268;28;102657;-66
2022/01/23 02:08:28;;;;;;;11.10;9.67;;;;;;;4.42;95.17;100367.69;4990215;28;103775;-68
2022/01/23 02:11:03;;;;;;;13.63;10.73;;;;;;;4.38;94.59;100374.72;4987452;28;102697;-65
2022/01/23 02:13:38;;;;;;;12.50;10.97;;;;;;;4.36;95.24;100378.28;4986565;28;104163;-68
2022/01/23 02:25:16;;;;;;;13.07;11.13;;;;;;;4.40;96.06;100359.00;4993629;28;104097;-68
2022/01/23 02:53:14;;;;;;;14.13;11.23;;;;;;;4.45;96.56;100321.38;4986882;28;105124;-68
2022/01/23 02:55:46;;;;;;;17.33;14.20;;;;;;;4.47;96.38;100329.19;4987770;28;102654;-68
2022/01/23 02:58:18;;;;;;;19.47;15.43;;;;;;;4.43;96.42;100319.69;4986581;28;102963;-64
2022/01/23 03:00:50;;;;;;;23.43;16.87;;;;;;;4.10;97.73;100324.72;5009410;28;103973;-65
2022/01/23 03:03:56;;;;;;;18.20;15.13;;;;;;;4.21;98.98;100336.75;4964125;28;103361;-65
2022/01/23 03:06:57;;;;;;;18.83;14.67;;;;;;;4.01;99.68;100332.75;4985200;28;102680;-64
2022/01/23 03:12:57;;;;;;;23.93;17.83;;;;;;;4.02;100.00;100334.50;4986513;28;104125;-68
2022/01/23 03:15:11;;;;;;;21.30;16.90;;;;;;;3.97;100.00;100336.34;4992986;28;104198;-68
2022/01/23 03:26:14;;;;;;;21.50;17.43;;;;;;;3.73;100.00;100369.97;5012271;28;103194;-64
2022/01/23 03:29:16;;;;;;;19.60;17.07;;;;;;;3.76;100.00;100375.97;4990962;28;102675;-64
2022/01/23 03:31:58;;;;;;;23.23;17.83;;;;;;;3.70;100.00;100370.88;4987584;28;102691;-67
2022/01/23 03:34:29;;;;;;;20.13;15.93;;;;;;;3.72;100.00;100374.31;5003011;28;103277;-68
2022/01/23 03:36:57;;;;;;;22.13;16.90;;;;;;;3.75;100.00;100373.41;5005598;28;103148;-67
2022/01/23 03:39:26;;;;;;;22.40;17.53;;;;;;;3.83;100.00;100381.97;5007278;28;102699;-68
2022/01/23 03:41:54;;;;;;;23.93;17.57;;;;;;;3.72;100.00;100374.31;4990140;28;104047;-67
2022/01/23 03:44:23;;;;;;;17.00;13.83;;;;;;;3.85;100.00;100374.94;4989559;28;104287;-68
2022/01/23 03:47:14;;;;;;;22.70;16.70;;;;;;;3.94;100.00;100374.78;4988756;28;105261;-68
2022/01/23 03:49:41;;;;;;;17.47;13.53;;;;;;;3.94;100.00;100370.41;4994097;28;102718;-67
2022/01/23 03:52:29;;;;;;;19.87;15.17;;;;;;;4.04;100.00;100377.16;4992983;28;104010;-68
2022/01/23 03:54:57;;;;;;;19.13;13.97;;;;;;;3.97;100.00;100378.19;4979326;28;103321;-64
2022/01/23 03:57:28;;;;;;;16.57;12.90;;;;;;;4.06;100.00;100379.78;4995288;28;103248;-64
2022/01/23 03:59:57;;;;;;;14.63;10.83;;;;;;;4.14;100.00;100374.38;4987182;28;102691;-67
2022/01/23 04:02:25;;;;;;;13.53;10.73;;;;;;;4.17;100.00;100376.94;4985597;28;103366;-68
2022/01/23 04:04:55;;;;;;;22.70;17.03;;;;;;;4.05;99.41;100388.50;4986932;28;104230;-68
2022/01/23 04:07:27;;;;;;;16.80;13.43;;;;;;;3.99;100.00;100384.25;5004181;28;103306;-68
2022/01/23 04:09:56;;;;;;;17.07;13.00;;;;;;;4.05;100.00;100371.06;4988104;28;102833;-67
2022/01/23 04:12:37;;;;;;;15.73;12.17;;;;;;;4.13;100.00;100364.81;4990378;28;103032;-64
2022/01/23 04:15:16;;;;;;;14.20;11.23;;;;;;;4.18;100.00;100363.84;5004958;28;103304;-65
2022/01/23 04:20:43;;;;;;;19.57;14.37;;;;;;;4.19;99.48;100369.91;5000165;28;103754;-65
2022/01/23 04:31:50;;;;;;;22.53;16.27;;;;;;;3.90;100.00;100371.34;4988403;28;102622;-67
2022/01/23 04:34:31;;;;;;;16.83;12.73;;;;;;;4.02;100.00;100357.16;5023253;27;104340;-68
2022/01/23 04:45:28;;;;;;;16.73;12.83;;;;;;;4.04;100.00;100352.78;4989259;28;104917;-68
2022/01/23 05:02:02;;;;;;;16.07;12.57;;;;;;;3.87;100.00;100360.97;4982947;28;103212;-66
2022/01/23 05:04:52;;;;;;;17.27;13.13;;;;;;;4.01;100.00;100366.75;5011616;28;102711;-64
2022/01/23 05:08:00;;;;;;;19.97;15.20;;;;;;;4.05;100.00;100357.09;4994016;28;104008;-65
2022/01/23 05:10:52;;;;;;;21.60;16.37;;;;;;;3.82;100.00;100370.63;4989030;28;105198;-65
2022/01/23 05:13:38;;;;;;;24.00;17.93;;;;;;;3.73;100.00;100373.44;4984447;28;106137;-64
2022/01/23 05:16:06;;;;;;;22.80;17.80;;;;;;;3.50;100.00;100378.22;4991859;28;103215;-65
2022/01/23 05:18:35;;;;;;;25.67;18.00;;;;;;;3.38;100.00;100391.47;5020716;27;104010;-64
2022/01/23 05:21:19;;;;;;;23.50;17.20;;;;;;;3.63;100.00;100384.06;4991344;28;104259;-65
2022/01/23 05:23:47;;;;;;;20.70;14.87;;;;;;;3.71;100.00;100383.03;5004348;28;103188;-64
2022/01/23 05:26:15;;;;;;;25.20;18.97;;;;;;;3.69;100.00;100379.59;4986170;28;102797;-65
2022/01/23 05:28:44;;;;;;;27.03;19.53;;;;;;;3.54;100.00;100379.84;4985816;28;103837;-65
2022/01/23 05:31:13;;;;;;;24.23;18.23;;;;;;;3.47;100.00;100399.16;4982266;28;104400;-64
2022/01/23 05:33:44;;;;;;;27.53;19.20;;;;;;;3.49;100.00;100397.38;5003963;28;103220;-65
2022/01/23 05:36:13;;;;;;;21.60;16.83;;;;;;;3.68;100.00;100385.72;4985805;28;102773;-65
2022/01/23 05:38:41;;;;;;;23.77;17.60;;;;;;;3.79;100.00;100377.69;4989163;28;102661;-64
2022/01/23 05:41:11;;;;;;;23.93;17.33;;;;;;;3.88;100.00;100383.59;4996564;28;104784;-66
2022/01/23 05:43:40;;;;;;;26.57;17.87;;;;;;;3.76;100.00;100381.19;4984852;28;105348;-65
2022/01/23 05:46:08;;;;;;;18.73;13.40;;;;;;;3.92;100.00;100371.34;4986195;28;102671;-66
2022/01/23 05:48:59;;;;;;;23.43;14.93;;;;;;;3.92;100.00;100376.56;5006272;28;104182;-68
2022/01/23 05:51:39;;;;;;;24.03;17.87;;;;;;;3.76;100.00;100381.19;5017350;27;106060;-65
2022/01/23 05:54:34;;;;;;;24.60;17.47;;;;;;;3.92;100.00;100381.78;4996894;28;103283;-65
2022/01/23 05:57:20;;;;;;;18.90;14.60;;;;;;;3.93;100.00;100386.97;5002785;28;103012;-65
2022/01/23 06:00:08;;;;;;;15.83;12.47;;;;;;;4.02;100.00;100384.19;5016773;27;104205;-64
2022/01/23 06:02:51;;;;;;;17.43;12.43;;;;;;;4.06;100.00;100388.50;5008001;28;103965;-64
2022/01/23 06:05:25;;;;;;;25.03;16.77;;;;;;;4.13;100.00;100393.59;5017671;27;105520;-68
2022/01/23 06:08:00;;;;;;;19.87;14.67;;;;;;;4.14;100.00;100398.78;4982695;28;102774;-67
2022/01/23 06:10:35;;;;;;;22.27;18.23;;;;;;;3.95;100.00;100402.66;4987940;28;104002;-67
2022/01/23 06:13:03;;;;;;;23.20;17.23;;;;;;;3.97;100.00;100401.72;4986408;28;104275;-68
2022/01/23 06:15:32;;;;;;;22.83;18.07;;;;;;;3.92;100.00;100406.19;4983227;28;103304;-68
2022/01/23 06:18:00;;;;;;;27.00;19.43;;;;;;;3.74;100.00;100419.59;5004223;28;103070;-68
2022/01/23 06:20:47;;;;;;;25.33;18.90;;;;;;;3.67;100.00;100420.59;5002541;28;102665;-68
2022/01/23 06:23:56;;;;;;;22.70;17.10;;;;;;;3.82;100.00;100408.97;4996533;28;103799;-68
2022/01/23 06:26:44;;;;;;;28.70;20.73;;;;;;;3.52;100.00;100418.22;4991540;28;103182;-68
2022/01/23 06:29:14;;;;;;;24.33;16.70;;;;;;;3.63;100.00;100405.84;4987656;28;102680;-69
2022/01/23 06:31:46;;;;;;;26.63;18.10;;;;;;;3.75;100.00;100416.09;4992216;28;103796;-68
2022/01/23 06:34:15;;;;;;;30.47;20.70;;;;;;;3.48;100.00;100424.41;5007510;28;103806;-68
2022/01/23 06:36:43;;;;;;;22.43;16.03;;;;;;;3.66;100.00;100426.72;5000650;28;103173;-68
2022/01/23 06:39:14;;;;;;;24.13;19.00;;;;;;;3.84;100.00;100420.31;4985040;28;102722;-68
2022/01/23 06:41:49;;;;;;;23.93;17.30;;;;;;;3.83;100.00;100419.44;4984189;28;102729;-68
2022/01/23 06:44:41;;;;;;;25.53;16.90;;;;;;;3.81;100.00;100430.81;4970952;28;103232;-68
2022/01/23 06:47:12;;;;;;;22.03;16.23;;;;;;;3.86;100.00;100426.34;4986807;28;102738;-68
2022/01/23 06:49:42;;;;;;;22.90;17.30;;;;;;;3.71;100.00;100427.47;4983424;28;102764;-68
2022/01/23 06:52:11;;;;;;;21.07;15.80;;;;;;;3.90;100.00;100430.66;5014084;27;104811;-69
2022/01/23 06:54:46;;;;;;;21.40;17.10;;;;;;;3.89;100.00;100432.41;4989443;28;105573;-69
2022/01/23 06:57:14;;;;;;;20.93;14.70;;;;;;;3.93;100.00;100434.06;4986821;28;105238;-68
2022/01/23 06:59:43;;;;;;;18.73;14.90;;;;;;;4.01;100.00;100434.78;4995207;28;102665;-68
2022/01/23 07:02:38;;;;;;;19.17;14.67;;;;;;;3.97;100.00;100443.59;4989966;28;102843;-68
2022/01/23 07:05:21;;;;;;;16.63;13.20;;;;;;;4.05;100.00;100441.69;4986371;28;104020;-66
2022/01/23 07:08:00;;;;;;;24.50;18.13;;;;;;;3.98;100.00;100444.44;4985262;28;104141;-65
2022/01/23 07:10:43;;;;;;;23.37;17.70;;;;;;;3.93;100.00;100451.53;4997634;28;103181;-65
2022/01/23 07:13:31;;;;;;;22.10;17.37;;;;;;;3.81;100.00;100447.38;4976493;28;103828;-65
2022/01/23 07:16:13;;;;;;;17.40;13.67;;;;;;;3.99;100.00;100457.47;4994103;28;104090;-68
2022/01/23 07:18:56;;;;;;;16.63;12.53;;;;;;;4.09;100.00;100453.81;4986527;28;105500;-65
2022/01/23 07:21:28;;;;;;;26.87;20.00;;;;;;;4.05;100.00;100465.22;4989696;28;102765;-65
2022/01/23 07:23:57;;;;;;;17.70;13.20;;;;;;;4.13;100.00;100462.47;4985209;28;104065;-65
2022/01/23 07:26:28;;;;;;;18.33;13.93;;;;;;;4.21;100.00;100462.34;4995783;28;104215;-64
2022/01/23 07:29:01;;;;;;;22.33;14.63;;;;;;;4.27;100.00;100467.44;4998004;28;103209;-65
2022/01/23 07:31:55;;;;;;;20.63;14.77;;;;;;;4.31;100.00;100469.09;4989918;28;102844;-64
2022/01/23 07:34:24;;;;;;;17.50;14.17;;;;;;;4.33;100.00;100468.19;4987050;28;103790;-65
2022/01/23 07:36:52;;;;;;;33.27;22.57;;;;;;;4.10;99.84;100473.84;4986450;28;104121;-66
2022/01/23 07:39:51;;;;;;;33.10;24.30;;;;;;;3.93;100.00;100473.28;4978248;28;103155;-65
2022/01/23 07:42:25;;;;;;;31.97;23.50;;;;;;;3.81;100.00;100467.41;5011557;28;102621;-68
2022/01/23 07:44:59;;;;;;;30.07;20.37;;;;;;;3.62;100.00;100479.91;5013497;28;102613;-68
2022/01/23 07:47:47;;;;;;;28.33;20.90;;;;;;;3.70;100.00;100482.44;5006714;28;104074;-65
2022/01/23 07:50:34;;;;;;;30.07;20.97;;;;;;;3.57;100.00;100484.34;4988401;28;103967;-65
2022/01/23 07:53:28;;;;;;;28.03;20.03;;;;;;;3.46;100.00;100491.50;4995946;28;102685;-68
2022/01/23 07:56:06;;;;;;;28.73;20.20;;;;;;;3.38;100.00;100485.53;4994816;28;102800;-68
2022/01/23 07:59:01;;;;;;;28.27;19.73;;;;;;;3.40;100.00;100496.81;4989645;28;104503;-67
2022/01/23 08:01:39;;;;;;;30.43;19.53;;;;;;;3.59;100.00;100503.50;4992920;28;103318;-67
2022/01/23 08:04:45;;;;;;;30.13;20.53;;;;;;;3.61;100.00;100500.88;5005341;28;102728;-68
2022/01/23 08:07:30;;;;;;;29.00;20.57;;;;;;;3.71;100.00;100497.19;4993251;28;104412;-67
2022/01/23 08:10:11;;;;;;;25.20;17.73;;;;;;;3.75;100.00;100505.00;4996677;28;105407;-69
2022/01/23 08:12:41;;;;;;;25.37;19.23;;;;;;;3.75;100.00;100507.59;5013638;27;103575;-65
2022/01/23 08:15:11;;;;;;;26.93;19.30;;;;;;;3.86;100.00;100497.81;5009256;28;102665;-69
2022/01/23 08:17:39;;;;;;;28.87;18.83;;;;;;;4.01;100.00;100500.16;5008425;28;103773;-68
2022/01/23 08:20:08;;;;;;;28.60;19.10;;;;;;;3.95;100.00;100497.69;4989749;28;104265;-68
2022/01/23 08:22:36;;;;;;;28.23;19.07;;;;;;;4.08;100.00;100499.19;4997419;28;104097;-65
2022/01/23 08:25:06;;;;;;;23.47;18.50;;;;;;;4.13;100.00;100504.31;5010818;28;102890;-66
2022/01/23 08:27:35;;;;;;;24.37;18.03;;;;;;;4.22;100.00;100505.91;5012172;28;103059;-66
2022/01/23 08:30:04;;;;;;;28.37;20.70;;;;;;;4.00;100.00;100505.44;5009156;28;103304;-66
2022/01/23 08:32:34;;;;;;;20.63;15.20;;;;;;;4.27;100.00;100504.94;4992236;28;104191;-66
2022/01/23 08:35:04;;;;;;;23.90;17.93;;;;;;;4.44;100.00;100507.22;5019415;28;102600;-66
2022/01/23 08:37:32;;;;;;;22.47;17.03;;;;;;;4.52;100.00;100515.81;5014930;28;102660;-69
2022/01/23 08:40:01;;;;;;;26.70;20.00;;;;;;;4.59;100.00;100517.41;5013747;28;104385;-69
2022/01/23 08:42:29;;;;;;;26.67;20.97;;;;;;;4.56;100.00;100518.34;5016114;28;103268;-69
2022/01/23 08:44:57;;;;;;;25.73;19.03;;;;;;;4.70;100.00;100531.16;4987953;28;102707;-66
2022/01/23 08:47:25;;;;;;;24.80;19.00;;;;;;;4.71;100.00;100522.41;5005041;28;103050;-68
2022/01/23 08:49:54;;;;;;;23.07;16.60;;;;;;;4.84;100.00;100512.53;5015323;28;103581;-68
2022/01/23 08:52:22;;;;;;;26.07;19.63;;;;;;;4.85;100.00;100512.53;5011737;28;103029;-69
2022/01/23 08:54:56;;;;;;;25.93;19.50;;;;;;;4.81;100.00;100518.72;5005192;28;103002;-69
2022/01/23 08:57:25;;;;;;;24.83;18.60;;;;;;;4.85;100.00;100516.91;5006528;28;104128;-69
2022/01/23 08:59:53;;;;;;;26.43;20.50;;;;;;;4.85;100.00;100506.41;4986551;28;104415;-68
2022/01/23 09:02:21;;;;;;;25.17;19.80;;;;;;;4.99;99.94;100501.75;5008766;28;103302;-69
2022/01/23 09:04:50;;;;;;;24.63;19.27;;;;;;;5.01;98.81;100500.81;5009736;28;102663;-69
2022/01/23 09:07:19;;;;;;;24.50;18.83;;;;;;;5.15;98.92;100503.13;4991967;28;104039;-65
2022/01/23 09:09:47;;;;;;;24.60;18.23;;;;;;;5.15;97.73;100493.53;5001741;28;103357;-66
2022/01/23 09:12:41;;;;;;;26.30;20.07;;;;;;;5.17;97.27;100491.72;5016167;28;103177;-69
2022/01/23 09:15:10;;;;;;;26.53;18.83;;;;;;;5.22;97.57;100495.09;5011836;28;102652;-69
2022/01/23 09:17:38;;;;;;;28.07;20.33;;;;;;;5.19;96.42;100500.41;5018086;28;102716;-69
2022/01/23 09:20:09;;;;;;;25.23;21.00;;;;;;;5.23;95.34;100494.22;5014499;28;103317;-68
2022/01/23 09:22:40;;;;;;;22.17;17.10;;;;;;;5.47;95.87;100500.66;5004001;28;103202;-69
2022/01/23 09:25:08;;;;;;;29.57;21.13;;;;;;;5.66;94.65;100491.47;5006468;28;102726;-69
2022/01/23 09:27:38;;;;;;;27.77;21.77;;;;;;;5.73;92.49;100492.16;4993602;28;103747;-69
2022/01/23 09:30:17;;;;;;;22.50;18.50;;;;;;;5.67;92.68;100498.41;5010722;28;104324;-69
2022/01/23 09:32:45;;;;;;;21.53;17.90;;;;;;;5.83;92.91;100496.28;5007681;28;103236;-70
2022/01/23 09:35:14;;;;;;;21.53;17.27;;;;;;;5.88;92.84;100491.81;5018012;28;102728;-69
2022/01/23 09:37:45;;;;;;;23.57;19.30;;;;;;;5.89;92.76;100493.56;5007568;28;103862;-69
2022/01/23 09:40:14;;;;;;;21.73;18.20;;;;;;;5.82;92.30;100491.94;5009952;28;103319;-68
2022/01/23 09:42:44;;;;;;;23.53;18.50;;;;;;;5.97;92.22;100486.34;5008225;28;103200;-66
2022/01/23 09:45:14;;;;;;;22.20;17.20;;;;;;;5.98;91.52;100488.03;5003291;28;102852;-66
2022/01/23 09:47:45;;;;;;;20.30;17.03;;;;;;;6.12;90.86;100495.59;4986176;28;102652;-70
2022/01/23 09:50:16;;;;;;;20.80;16.53;;;;;;;6.30;90.33;100495.97;4993929;28;104088;-70
2022/01/23 09:52:46;;;;;;;22.43;19.30;;;;;;;6.18;89.59;100496.28;5000568;28;103249;-69
2022/01/23 09:55:15;;;;;;;19.30;16.10;;;;;;;6.29;90.26;100493.34;4986098;28;103511;-67
2022/01/23 09:57:47;;;;;;;27.07;20.00;;;;;;;6.07;89.63;100498.31;4992591;28;104385;-66
2022/01/23 10:00:18;;;;;;;24.57;20.50;;;;;;;6.08;90.10;100502.69;4996105;28;103539;-67
2022/01/23 10:02:47;;;;;;;24.70;19.60;;;;;;;6.06;90.80;100496.63;5005513;28;103008;-67
2022/01/23 10:05:18;;;;;;;21.73;18.40;;;;;;;6.02;90.88;100499.34;4987202;28;102888;-67
2022/01/23 10:07:48;;;;;;;20.87;18.37;;;;;;;6.12;91.01;100495.59;4984453;28;104144;-68
2022/01/23 10:10:21;;;;;;;16.70;14.80;;;;;;;6.27;90.11;100490.78;4981264;28;103076;-67
2022/01/23 10:12:51;;;;;;;20.30;17.10;;;;;;;6.18;89.35;100496.28;5006762;28;103216;-67
2022/01/23 10:15:20;;;;;;;17.37;14.93;;;;;;;6.29;89.73;100493.34;4992901;28;102779;-67
2022/01/23 10:17:49;;;;;;;18.30;16.20;;;;;;;6.25;89.07;100497.84;5009820;28;104066;-69
2022/01/23 10:20:19;;;;;;;17.43;15.53;;;;;;;6.40;89.28;100486.91;5020972;27;103063;-68
2022/01/23 10:22:51;;;;;;;18.63;16.20;;;;;;;5.88;88.68;100499.69;5009049;28;103205;-67
2022/01/23 10:25:21;;;;;;;15.87;13.50;;;;;;;6.20;89.87;100494.47;5006414;28;102706;-66
2022/01/23 10:28:00;;;;;;;21.10;17.13;;;;;;;5.97;87.84;100493.34;5015275;28;103573;-67
2022/01/23 10:30:30;;;;;;;19.20;15.77;;;;;;;6.01;90.52;100492.34;5008553;28;104453;-67
2022/01/23 10:33:06;;;;;;;14.73;13.13;;;;;;;6.33;89.90;100495.88;5001400;28;103237;-67
2022/01/23 10:35:36;;;;;;;16.73;13.73;;;;;;;6.46;87.47;100498.19;5005344;28;103149;-67
2022/01/23 10:38:13;;;;;;;19.27;15.50;;;;;;;5.90;87.03;100500.50;5007964;28;103048;-70
2022/01/23 10:40:49;;;;;;;19.17;15.97;;;;;;;5.51;90.37;100491.81;4984151;28;104296;-67
2022/01/23 10:48:59;;;;;;;16.37;14.53;;;;;;;6.35;88.38;100491.44;5003372;28;103563;-70
2022/01/23 10:51:29;;;;;;;21.37;18.10;;;;;;;6.46;87.93;100487.69;5008110;28;102687;-67
2022/01/23 10:54:11;;;;;;;16.43;14.43;;;;;;;6.69;87.11;100482.63;5007594;28;103173;-67
2022/01/23 10:56:56;;;;;;;16.47;14.43;;;;;;;6.57;87.11;100475.94;4990455;28;102806;-67
2022/01/23 10:59:25;;;;;;;19.57;16.40;;;;;;;6.16;87.53;100481.47;5008196;28;102689;-67
2022/01/23 11:02:02;;;;;;;19.83;17.73;;;;;;;5.73;89.85;100486.91;5008208;28;103997;-67
2022/01/23 11:04:35;;;;;;;15.40;13.80;;;;;;;6.27;89.98;100482.91;5010319;28;103203;-67
2022/01/23 11:07:07;;;;;;;20.17;17.17;;;;;;;5.85;88.58;100476.16;4982124;28;102672;-67
2022/01/23 11:09:37;;;;;;;22.70;17.87;;;;;;;6.05;89.28;100473.88;5008041;27;104213;-70
2022/01/23 11:12:14;;;;;;;20.97;17.73;;;;;;;6.40;88.49;100465.91;5000754;28;103261;-67
2022/01/23 11:17:49;;;;;;;19.17;16.13;;;;;;;6.54;87.13;100477.81;5002708;28;102597;-70
2022/01/23 11:20:31;;;;;;;19.30;16.50;;;;;;;6.51;86.22;100486.66;4985692;28;104458;-70
2022/01/23 11:23:04;;;;;;;15.37;12.97;;;;;;;6.66;86.45;100472.19;5004034;28;104467;-70
2022/01/23 11:25:33;;;;;;;14.47;12.63;;;;;;;6.86;84.87;100477.75;5000763;28;103208;-67
2022/01/23 11:28:05;;;;;;;13.77;12.33;;;;;;;6.92;84.84;100470.53;5002405;28;102623;-70
2022/01/23 11:30:40;;;;;;;12.67;11.33;;;;;;;7.03;83.97;100467.59;5000379;28;103856;-70
2022/01/23 11:33:11;;;;;;;11.87;9.47;;;;;;;7.03;82.94;100471.97;5000990;28;103413;-70
2022/01/23 11:35:40;;;;;;;12.20;10.70;;;;;;;7.10;81.03;100469.16;4983166;28;103253;-67
2022/01/23 11:38:13;;;;;;;12.23;10.80;;;;;;;6.86;81.42;100456.72;4986217;28;102804;-71
2022/01/23 11:55:01;;;;;;;9.53;8.40;;;;;;;7.46;79.99;100446.09;5001909;28;104837;-70
2022/01/23 11:57:45;;;;;;;11.73;10.40;;;;;;;7.24;79.63;100445.88;4985623;28;102902;-70
2022/01/23 12:00:20;;;;;;;13.60;11.77;;;;;;;7.08;80.34;100444.66;4985302;28;102732;-69
2022/01/23 12:03:13;;;;;;;12.13;10.27;;;;;;;7.20;78.70;100443.41;5000932;28;102761;-67
2022/01/23 12:05:44;;;;;;;13.63;10.67;;;;;;;7.30;79.21;100439.56;5002532;28;103685;-67
2022/01/23 12:08:20;;;;;;;12.93;11.37;;;;;;;7.24;78.57;100445.88;5001881;28;103284;-70
2022/01/23 12:17:40;;;;;;;12.13;10.83;;;;;;;7.16;79.21;100436.56;4986217;28;104199;-70
2022/01/23 12:20:09;;;;;;;13.67;12.27;;;;;;;7.15;79.60;100433.06;5002031;28;103026;-70
2022/01/23 12:22:45;;;;;;;11.03;9.93;;;;;;;7.03;79.12;100430.78;5002001;28;102607;-70
2022/01/23 12:25:22;;;;;;;9.83;8.83;;;;;;;7.12;77.83;100429.66;5005540;28;104079;-67
2022/01/23 12:28:17;;;;;;;9.10;8.17;;;;;;;7.39;77.04;100428.78;5003355;28;103266;-70
2022/01/23 12:30:49;;;;;;;10.47;9.37;;;;;;;7.32;77.75;100433.38;5001417;28;103207;-70
2022/01/23 12:33:45;;;;;;;11.83;10.53;;;;;;;6.36;77.46;100432.78;5002243;28;102850;-70
2022/01/23 12:36:24;;;;;;;12.10;9.43;;;;;;;6.64;78.37;100426.75;5004693;28;102726;-67
2022/01/23 12:38:54;;;;;;;9.33;8.23;;;;;;;6.97;78.25;100421.34;5005616;28;103328;-67
2022/01/23 12:41:29;;;;;;;9.90;8.90;;;;;;;7.15;78.02;100424.31;4984289;28;104272;-70
2022/01/23 12:44:00;;;;;;;9.00;8.10;;;;;;;7.07;78.06;100421.06;5004634;28;102770;-70
2022/01/23 12:46:37;;;;;;;8.73;7.83;;;;;;;7.33;77.30;100408.78;4989131;28;102863;-67
2022/01/23 12:49:26;;;;;;;8.30;7.50;;;;;;;7.34;75.32;100413.16;4986108;28;104073;-67
2022/01/23 12:52:13;;;;;;;9.50;8.47;;;;;;;7.25;76.45;100418.69;5000570;28;103191;-70
2022/01/23 12:54:55;;;;;;;6.77;6.07;;;;;;;7.45;75.99;100408.41;4981999;28;102709;-67
2022/01/23 12:57:31;;;;;;;9.93;8.83;;;;;;;7.31;75.51;100410.63;5001448;28;103829;-67
2022/01/23 13:00:05;;;;;;;8.73;7.83;;;;;;;7.33;74.70;100407.94;5003172;28;103007;-70
2022/01/23 13:02:41;;;;;;;6.10;5.50;;;;;;;7.20;71.72;100418.00;4982037;28;102764;-67
2022/01/23 13:05:10;;;;;;;4.87;4.23;;;;;;;7.38;72.14;100406.03;4981044;28;103877;-67
2022/01/23 13:07:46;;;;;;;3.90;3.53;;;;;;;7.27;70.69;100411.63;4987504;28;102863;-66
2022/01/23 13:10:29;;;;;;;7.10;5.00;;;;;;;7.28;68.19;100413.34;5005443;28;103363;-70
2022/01/23 13:13:11;;;;;;;6.37;5.07;;;;;;;7.25;69.23;100404.69;4989301;28;102677;-67
2022/01/23 13:15:58;;;;;;;4.80;4.40;;;;;;;7.40;69.70;100410.34;5005006;28;102683;-67
2022/01/23 13:18:44;;;;;;;6.37;4.53;;;;;;;7.33;67.82;100403.53;4985347;28;103688;-67
2022/01/23 13:32:27;;;;;;;10.37;8.80;;;;;;;7.04;74.11;100389.63;4991951;28;104180;-67
2022/01/23 13:35:03;;;;;;;4.80;4.30;;;;;;;6.73;68.04;100395.81;5006704;28;103196;-67
2022/01/23 13:37:35;;;;;;;3.77;2.90;;;;;;;6.77;66.89;100396.56;5005090;28;102596;-67
2022/01/23 13:40:08;;;;;;;5.27;3.47;;;;;;;6.79;68.06;100397.41;4985877;28;102832;-67
2022/01/23 13:47:56;;;;;;;6.20;4.20;;;;;;;6.96;68.67;100389.88;5003702;28;103564;-67
2022/01/23 13:49:52;;;;;;;6.07;4.33;;;;;;;6.91;69.59;100383.88;4972095;28;103184;-70
2022/01/23 13:51:59;;;;;;;5.00;4.03;;;;;;;6.76;67.62;100377.34;5003134;28;104002;-71
2022/01/23 14:00:01;;;;;;;3.00;2.70;;;;;;;6.80;68.48;100381.56;4981961;28;102625;-67
2022/01/23 14:02:33;;;;;;;4.70;3.73;;;;;;;6.71;68.24;100381.00;4999435;28;102705;-67
2022/01/23 14:05:08;;;;;;;4.30;3.63;;;;;;;6.67;68.97;100379.38;5002236;28;103276;-67
2022/01/23 14:07:38;;;;;;;4.37;3.97;;;;;;;6.82;69.90;100385.00;5000444;28;103295;-70
2022/01/23 14:10:14;;;;;;;3.53;3.23;;;;;;;7.02;70.15;100371.25;5000795;28;102806;-68
2022/01/23 14:12:43;;;;;;;4.10;3.60;;;;;;;6.98;70.92;100372.28;4999311;28;104457;-67
2022/01/23 14:15:21;;;;;;;4.67;4.23;;;;;;;6.86;70.31;100375.28;4999617;28;103519;-67
2022/01/23 14:17:57;;;;;;;3.97;3.33;;;;;;;6.89;70.82;100373.41;4982355;28;104185;-67
2022/01/23 14:20:26;;;;;;;5.07;3.63;;;;;;;6.98;69.69;100372.28;4988075;28;102835;-67